Etusivu
METAR-TAF:

METAR-TAF

Lentoasemat :

Nueces County Airport

Robstown, Texas, Yhdysvallat

Leveyspiiri: 27-46-42N, Pituuspiiri: 097-41-25W, korkeus merenpinnasta: 24 m

Tämänhetkinen sää

Tämä raportti tehtiin 32 minuuttia sitten, kello 22.55 UTC
Tuuli 9 kn etelästä
Lämpötila 31°C
Kosteus 63%
Ilmanpaine 1017 hPa
Näkyvyys: 11.3 km
selkeää

METAR: KRBO 082255Z AUTO 17009KT 7SM CLR 31/23 A3003 RMK AO2 T03060231

Aika: 18:27 (23:27 UTC)


TAF: puuttuu

Säähavainnot ja -ennusteet yli 4000 lentoasemalta (METAR- ja TAF-raportit).

Käytössä olevat sääasemat on merkitty karttaan keltaisilla ja punaisilla pisteillä.

Aseta hiiri pisteen päälle nähdäksesi sääaseman nimen.

Klikkaa sitten nähdäksesi säähavainnot ja -ennusteet.

Kartan vaihtaminen: klikkaa mustalla rastilla varustettuja vihreitä pisteitä, niin voit zoomata sisään; viivalla varustettua vihreää pistettä, niin voit zoomata ulos tai vihreitä nuolia, niin pääset viereisille kartoille.


METAR-TAF: